Time;durP1;ratioP1;P1;durP2;ratioP2;P2;SDS_P1;SDS_P2;PMS_P1;PMS_P2;Temp;Humidity;BMP_temperature;BMP_pressure;BME280_temperature;BME280_humidity;BME280_pressure;Samples;Min_cycle;Max_cycle;Signal;HPM_P1;HPM_P2
2020/12/24 00:00:16;;;;;;;41.40;23.73;;;;;;;;;;5094372;28;20032;-67
2020/12/24 00:02:43;;;;;;;39.75;24.60;;;;;;;;;;5093798;28;20108;-67
2020/12/24 00:05:09;;;;;;;41.72;24.80;;;;;;;;;;5075409;28;20051;-68
2020/12/24 00:07:35;;;;;;;41.95;24.60;;;;;;;;;;5093410;28;20394;-68
2020/12/24 00:10:02;;;;;;;41.17;24.50;;;;;;;;;;5093419;28;20428;-68
2020/12/24 00:12:28;;;;;;;41.60;25.15;;;;;;;;;;5093526;28;20107;-68
2020/12/24 00:14:54;;;;;;;37.90;23.63;;;;;;;;;;5075504;28;20410;-68
2020/12/24 00:17:20;;;;;;;40.20;24.75;;;;;;;;;;5094081;28;20027;-68
2020/12/24 00:19:46;;;;;;;38.15;24.23;;;;;;;;;;5075420;28;20065;-74
2020/12/24 00:22:12;;;;;;;42.22;25.38;;;;;;;;;;5093157;28;20031;-76
2020/12/24 00:24:38;;;;;;;38.53;23.58;;;;;;;;;;5093378;28;20020;-71
2020/12/24 00:27:05;;;;;;;43.08;24.55;;;;;;;;;;5093481;28;20099;-70
2020/12/24 00:29:31;;;;;;;37.88;23.90;;;;;;;;;;5093177;28;20379;-72
2020/12/24 00:31:58;;;;;;;45.08;25.17;;;;;;;;;;5105881;28;20076;-71
2020/12/24 00:34:24;;;;;;;39.33;23.60;;;;;;;;;;5112463;28;20638;-74
2020/12/24 00:36:50;;;;;;;39.13;24.23;;;;;;;;;;5113115;28;20398;-75
2020/12/24 00:39:16;;;;;;;42.72;24.80;;;;;;;;;;5113345;28;20020;-72
2020/12/24 00:41:42;;;;;;;46.80;25.92;;;;;;;;;;5113338;28;20367;-70
2020/12/24 00:44:08;;;;;;;43.92;24.73;;;;;;;;;;5113166;28;20046;-70
2020/12/24 00:46:35;;;;;;;42.65;25.02;;;;;;;;;;5113313;28;20024;-69
2020/12/24 00:49:01;;;;;;;44.58;24.92;;;;;;;;;;5095011;28;20034;-70
2020/12/24 00:51:27;;;;;;;39.72;24.65;;;;;;;;;;5100358;28;20028;-69
2020/12/24 00:53:53;;;;;;;41.53;25.45;;;;;;;;;;5074696;28;20020;-81
2020/12/24 00:56:19;;;;;;;48.35;25.98;;;;;;;;;;5092805;28;20513;-74
2020/12/24 00:58:45;;;;;;;42.03;25.88;;;;;;;;;;5092770;28;20024;-81
2020/12/24 01:01:11;;;;;;;44.17;24.92;;;;;;;;;;5109862;28;20028;-76
2020/12/24 01:03:37;;;;;;;45.20;26.80;;;;;;;;;;5094728;28;20428;-80
2020/12/24 01:06:03;;;;;;;42.58;25.38;;;;;;;;;;5112685;28;20024;-71
2020/12/24 01:08:29;;;;;;;38.67;23.17;;;;;;;;;;5112420;28;20378;-71
2020/12/24 01:10:55;;;;;;;35.83;22.92;;;;;;;;;;5112959;28;20031;-72
2020/12/24 01:13:21;;;;;;;39.83;24.05;;;;;;;;;;5112774;28;20020;-79
2020/12/24 01:15:48;;;;;;;39.83;23.15;;;;;;;;;;5112671;28;20547;-71
2020/12/24 01:18:14;;;;;;;39.72;23.85;;;;;;;;;;5112593;28;20023;-74
2020/12/24 01:20:40;;;;;;;40.72;23.17;;;;;;;;;;5094339;28;20118;-80
2020/12/24 01:23:06;;;;;;;35.70;23.15;;;;;;;;;;5112742;28;20043;-74
2020/12/24 01:25:33;;;;;;;36.83;22.67;;;;;;;;;;5111694;28;20098;-73
2020/12/24 01:27:59;;;;;;;37.85;22.15;;;;;;;;;;5112382;28;20525;-72
2020/12/24 01:30:25;;;;;;;32.83;21.42;;;;;;;;;;5112301;28;20458;-74
2020/12/24 01:32:52;;;;;;;34.20;21.73;;;;;;;;;;5112695;28;20023;-83
2020/12/24 01:35:18;;;;;;;34.65;21.13;;;;;;;;;;5112832;28;20028;-82
2020/12/24 01:37:44;;;;;;;39.47;23.55;;;;;;;;;;5112578;28;20122;-71
2020/12/24 01:40:10;;;;;;;34.17;21.90;;;;;;;;;;5112870;28;20020;-78
2020/12/24 01:42:36;;;;;;;37.55;22.90;;;;;;;;;;5111201;28;20102;-77
2020/12/24 01:45:02;;;;;;;33.88;21.85;;;;;;;;;;5111890;28;20088;-76
2020/12/24 01:47:28;;;;;;;39.53;22.70;;;;;;;;;;5093629;28;20039;-80
2020/12/24 01:49:54;;;;;;;32.60;21.65;;;;;;;;;;5093832;28;20028;-74
2020/12/24 01:52:34;;;;;;;37.25;22.25;;;;;;;;;;5111943;28;20030;-76
2020/12/24 01:55:01;;;;;;;37.03;21.25;;;;;;;;;;5111670;28;20475;-76
2020/12/24 01:57:27;;;;;;;35.55;22.55;;;;;;;;;;5093593;28;20031;-74
2020/12/24 01:59:54;;;;;;;34.40;21.77;;;;;;;;;;5092752;28;20015;-72
2020/12/24 02:02:21;;;;;;;36.90;22.00;;;;;;;;;;5111023;28;20397;-72
2020/12/24 02:04:47;;;;;;;35.53;20.95;;;;;;;;;;5093179;28;20020;-78
2020/12/24 02:07:14;;;;;;;33.40;21.73;;;;;;;;;;5113565;28;20027;-87
2020/12/24 02:09:41;;;;;;;37.53;22.20;;;;;;;;;;5114289;28;20098;-80
2020/12/24 02:12:09;;;;;;;35.47;21.63;;;;;;;;;;5113507;28;20020;-80
2020/12/24 02:14:35;;;;;;;36.08;22.02;;;;;;;;;;5094884;28;20114;-87
2020/12/24 02:17:01;;;;;;;37.72;22.50;;;;;;;;;;5112732;28;20118;-77
2020/12/24 02:19:27;;;;;;;35.00;22.05;;;;;;;;;;5095199;28;20457;-84
2020/12/24 02:21:53;;;;;;;35.38;22.10;;;;;;;;;;5094337;28;20027;-75
2020/12/24 02:24:19;;;;;;;33.42;21.90;;;;;;;;;;5093353;28;20517;-77
2020/12/24 02:26:45;;;;;;;32.80;20.38;;;;;;;;;;5112132;28;20020;-84
2020/12/24 02:29:11;;;;;;;37.45;22.00;;;;;;;;;;5112380;28;20115;-76
2020/12/24 02:31:37;;;;;;;35.40;21.65;;;;;;;;;;5111606;28;20024;-76
2020/12/24 02:34:03;;;;;;;33.67;21.52;;;;;;;;;;5075274;28;20127;-75
2020/12/24 02:36:29;;;;;;;33.47;20.45;;;;;;;;;;5073019;28;20036;-74
2020/12/24 02:38:55;;;;;;;33.47;20.70;;;;;;;;;;5091200;28;20113;-72
2020/12/24 02:41:21;;;;;;;37.83;22.42;;;;;;;;;;5091221;28;20051;-71
2020/12/24 02:43:50;;;;;;;36.30;22.27;;;;;;;;;;5090917;28;20056;-70
2020/12/24 02:46:16;;;;;;;32.80;21.48;;;;;;;;;;5091045;28;20040;-75
2020/12/24 02:48:42;;;;;;;35.10;22.00;;;;;;;;;;5091125;28;20020;-75
2020/12/24 02:51:08;;;;;;;33.72;20.70;;;;;;;;;;5091715;28;20036;-76
2020/12/24 02:53:34;;;;;;;35.28;21.88;;;;;;;;;;5091054;28;20108;-70
2020/12/24 02:56:00;;;;;;;38.42;22.27;;;;;;;;;;5090798;28;20028;-72
2020/12/24 02:58:26;;;;;;;35.28;21.48;;;;;;;;;;5090989;28;20387;-74
2020/12/24 03:00:52;;;;;;;34.47;20.48;;;;;;;;;;5091022;28;20435;-70
2020/12/24 03:03:20;;;;;;;33.95;22.10;;;;;;;;;;5090900;28;20390;-70
2020/12/24 03:05:46;;;;;;;32.47;20.77;;;;;;;;;;5090784;28;20046;-70
2020/12/24 03:08:12;;;;;;;34.60;22.23;;;;;;;;;;5091352;28;20016;-71
2020/12/24 03:10:38;;;;;;;35.10;21.98;;;;;;;;;;5090904;28;20472;-71
2020/12/24 03:13:04;;;;;;;35.65;21.45;;;;;;;;;;5090714;28;20042;-69
2020/12/24 03:15:30;;;;;;;30.02;20.00;;;;;;;;;;5090624;28;20147;-71
2020/12/24 03:17:56;;;;;;;33.17;21.35;;;;;;;;;;5090917;28;20020;-69
2020/12/24 03:20:22;;;;;;;33.25;21.45;;;;;;;;;;5090772;28;20061;-73
2020/12/24 03:22:48;;;;;;;33.78;21.15;;;;;;;;;;5073434;28;20059;-73
2020/12/24 03:25:14;;;;;;;35.97;21.77;;;;;;;;;;5096196;28;20020;-72
2020/12/24 03:27:41;;;;;;;33.85;20.58;;;;;;;;;;5114726;27;20107;-72
2020/12/24 03:30:09;;;;;;;32.55;20.90;;;;;;;;;;5114925;28;20364;-74
2020/12/24 03:32:35;;;;;;;31.20;21.25;;;;;;;;;;5115048;28;20020;-70
2020/12/24 03:35:01;;;;;;;31.73;19.50;;;;;;;;;;5096484;28;20024;-71
2020/12/24 03:37:27;;;;;;;31.67;20.10;;;;;;;;;;5114730;28;20478;-70
2020/12/24 03:39:53;;;;;;;35.35;20.30;;;;;;;;;;5114595;28;20023;-69
2020/12/24 03:42:19;;;;;;;31.58;20.10;;;;;;;;;;5114684;28;20615;-68
2020/12/24 03:44:45;;;;;;;30.98;19.77;;;;;;;;;;5096160;28;20482;-70
2020/12/24 03:47:11;;;;;;;32.55;20.77;;;;;;;;;;5114319;28;20028;-80
2020/12/24 03:49:37;;;;;;;33.13;20.17;;;;;;;;;;5111773;28;20104;-69
2020/12/24 03:52:04;;;;;;;31.08;18.92;;;;;;;;;;5107080;27;20024;-75
2020/12/24 03:54:30;;;;;;;29.52;19.10;;;;;;;;;;5113842;28;20432;-73
2020/12/24 03:56:56;;;;;;;28.88;18.38;;;;;;;;;;5113482;28;20378;-70
2020/12/24 03:59:22;;;;;;;31.10;18.67;;;;;;;;;;5113467;28;20481;-71
2020/12/24 04:01:48;;;;;;;35.35;19.50;;;;;;;;;;5114314;28;20023;-74
2020/12/24 04:04:14;;;;;;;34.20;20.05;;;;;;;;;;5114086;28;20027;-71
2020/12/24 04:06:40;;;;;;;30.65;19.88;;;;;;;;;;5113643;28;20024;-70
2020/12/24 04:09:06;;;;;;;28.85;18.92;;;;;;;;;;5113605;28;20050;-72
2020/12/24 04:11:32;;;;;;;31.70;19.70;;;;;;;;;;5113806;28;20497;-69
2020/12/24 04:13:58;;;;;;;31.00;19.35;;;;;;;;;;5114358;28;20064;-72
2020/12/24 04:16:25;;;;;;;33.97;17.85;;;;;;;;;;5115099;28;20043;-69
2020/12/24 04:18:51;;;;;;;30.25;19.15;;;;;;;;;;5115450;28;20053;-70
2020/12/24 04:21:19;;;;;;;30.52;19.30;;;;;;;;;;5115424;28;20023;-69
2020/12/24 04:23:45;;;;;;;31.42;18.20;;;;;;;;;;5115289;28;20088;-69
2020/12/24 04:26:18;;;;;;;32.28;18.42;;;;;;;;;;5114980;28;20070;-72
2020/12/24 04:28:44;;;;;;;;;;;;;;;;;;5115577;28;20068;-72
2020/12/24 04:31:10;;;;;;;26.58;17.58;;;;;;;;;;5115008;28;19904;-72
2020/12/24 04:33:38;;;;;;;30.55;18.33;;;;;;;;;;5114867;28;20020;-73
2020/12/24 04:36:04;;;;;;;27.38;17.95;;;;;;;;;;5114599;28;20047;-73
2020/12/24 04:38:30;;;;;;;29.27;18.33;;;;;;;;;;5114972;28;20464;-72
2020/12/24 04:40:59;;;;;;;27.15;17.67;;;;;;;;;;5115066;28;20464;-72
2020/12/24 04:43:28;;;;;;;28.88;18.30;;;;;;;;;;5114861;28;20031;-73
2020/12/24 04:45:55;;;;;;;26.42;17.50;;;;;;;;;;5114480;28;20363;-73
2020/12/24 04:48:21;;;;;;;27.23;17.85;;;;;;;;;;5114763;28;20027;-72
2020/12/24 04:50:51;;;;;;;28.15;17.48;;;;;;;;;;5114778;28;20047;-73
2020/12/24 04:53:18;;;;;;;28.73;19.00;;;;;;;;;;5096410;28;20062;-72
2020/12/24 04:55:44;;;;;;;29.42;18.17;;;;;;;;;;5106518;27;20059;-69
2020/12/24 04:58:11;;;;;;;32.20;19.77;;;;;;;;;;5113178;28;20038;-71
2020/12/24 05:00:39;;;;;;;33.58;18.02;;;;;;;;;;5114754;28;20022;-73
2020/12/24 05:03:06;;;;;;;30.27;18.90;;;;;;;;;;5096314;28;20051;-72
2020/12/24 05:05:33;;;;;;;28.48;18.17;;;;;;;;;;5114922;28;20027;-69
2020/12/24 05:08:02;;;;;;;30.13;18.02;;;;;;;;;;5112671;28;20019;-73
2020/12/24 05:10:28;;;;;;;28.45;18.45;;;;;;;;;;5095681;28;20019;-73
2020/12/24 05:12:54;;;;;;;27.67;17.58;;;;;;;;;;5114301;28;20023;-74
2020/12/24 05:15:28;;;;;;;27.70;17.55;;;;;;;;;;5095918;28;20051;-71
2020/12/24 05:17:54;;;;;;;29.98;18.00;;;;;;;;;;5096041;28;20106;-73
2020/12/24 05:20:20;;;;;;;27.52;18.48;;;;;;;;;;5114037;28;20023;-73
2020/12/24 05:22:46;;;;;;;29.65;19.05;;;;;;;;;;5095804;28;20024;-71
2020/12/24 05:25:19;;;;;;;29.75;19.02;;;;;;;;;;5114092;28;20112;-70
2020/12/24 05:27:57;;;;;;;27.85;17.90;;;;;;;;;;5114115;28;20055;-73
2020/12/24 05:30:27;;;;;;;27.95;18.63;;;;;;;;;;5114011;28;20024;-73
2020/12/24 05:32:53;;;;;;;27.17;17.90;;;;;;;;;;5114006;28;20045;-73
2020/12/24 05:35:22;;;;;;;27.90;18.13;;;;;;;;;;5114035;28;20027;-72
2020/12/24 05:37:50;;;;;;;31.30;19.00;;;;;;;;;;5114066;28;20089;-72
2020/12/24 05:40:17;;;;;;;29.65;18.33;;;;;;;;;;5114075;28;20024;-73
2020/12/24 05:42:49;;;;;;;26.98;16.98;;;;;;;;;;5095756;28;20024;-73
2020/12/24 05:45:16;;;;;;;30.65;18.00;;;;;;;;;;5113720;28;20069;-70
2020/12/24 05:47:42;;;;;;;28.00;18.38;;;;;;;;;;5113789;28;20029;-74
2020/12/24 05:50:21;;;;;;;27.70;17.20;;;;;;;;;;5113642;28;20030;-74
2020/12/24 05:53:02;;;;;;;28.42;17.85;;;;;;;;;;5113623;28;20016;-73
2020/12/24 05:55:28;;;;;;;30.73;18.58;;;;;;;;;;5094781;28;20033;-73
2020/12/24 05:57:56;;;;;;;27.27;17.52;;;;;;;;;;5094842;28;20061;-73
2020/12/24 06:00:22;;;;;;;23.85;16.85;;;;;;;;;;5113095;28;20040;-69
2020/12/24 06:02:54;;;;;;;26.98;18.00;;;;;;;;;;5112834;28;20035;-73
2020/12/24 06:05:24;;;;;;;26.25;18.00;;;;;;;;;;5094438;28;20390;-70
2020/12/24 06:08:03;;;;;;;27.42;17.30;;;;;;;;;;5112616;28;20142;-73
2020/12/24 06:10:45;;;;;;;27.80;18.17;;;;;;;;;;5112845;28;20027;-70
2020/12/24 06:13:15;;;;;;;28.27;17.70;;;;;;;;;;5094914;28;20030;-71
2020/12/24 06:15:44;;;;;;;25.90;17.35;;;;;;;;;;5094797;28;20051;-70
2020/12/24 06:18:14;;;;;;;28.88;18.02;;;;;;;;;;5113173;28;20028;-70
2020/12/24 06:20:44;;;;;;;25.60;17.02;;;;;;;;;;5113308;28;20479;-72
2020/12/24 06:23:11;;;;;;;27.88;17.95;;;;;;;;;;5095020;28;20118;-70
2020/12/24 06:25:37;;;;;;;24.88;17.15;;;;;;;;;;5094960;28;20043;-72
2020/12/24 06:28:04;;;;;;;24.60;16.40;;;;;;;;;;5113256;28;20394;-70
2020/12/24 06:30:31;;;;;;;28.55;18.00;;;;;;;;;;5113391;28;20095;-70
2020/12/24 06:32:58;;;;;;;28.30;17.25;;;;;;;;;;5113216;28;20395;-73
2020/12/24 06:35:38;;;;;;;27.25;17.73;;;;;;;;;;5113244;28;20080;-73
2020/12/24 06:38:05;;;;;;;24.65;16.00;;;;;;;;;;5095346;28;20383;-69
2020/12/24 06:40:38;;;;;;;26.33;17.52;;;;;;;;;;5113082;28;20016;-72
2020/12/24 06:43:05;;;;;;;25.17;16.75;;;;;;;;;;5094726;28;20059;-69
2020/12/24 06:45:35;;;;;;;26.40;16.45;;;;;;;;;;5113039;28;20022;-72
2020/12/24 06:48:18;;;;;;;22.85;15.68;;;;;;;;;;5112934;28;20102;-70
2020/12/24 06:50:45;;;;;;;28.27;17.17;;;;;;;;;;5112403;28;20049;-70
2020/12/24 06:53:20;;;;;;;24.08;16.58;;;;;;;;;;5112302;28;20054;-73
2020/12/24 06:56:05;;;;;;;25.13;16.38;;;;;;;;;;5112065;28;20032;-70
2020/12/24 06:58:38;;;;;;;24.27;16.23;;;;;;;;;;5114246;28;20100;-72
2020/12/24 07:01:04;;;;;;;23.70;16.13;;;;;;;;;;5116461;28;20096;-73
2020/12/24 07:03:30;;;;;;;23.75;16.08;;;;;;;;;;5116572;28;20416;-73
2020/12/24 07:05:57;;;;;;;27.27;16.52;;;;;;;;;;5098069;28;20478;-70
2020/12/24 07:08:35;;;;;;;23.27;16.52;;;;;;;;;;5097885;28;20024;-72
2020/12/24 07:11:01;;;;;;;24.35;16.25;;;;;;;;;;5116245;28;20510;-70
2020/12/24 07:13:34;;;;;;;29.60;15.85;;;;;;;;;;5116209;28;20058;-70
2020/12/24 07:16:04;;;;;;;26.92;16.55;;;;;;;;;;5097625;28;20525;-73
2020/12/24 07:18:30;;;;;;;22.55;15.45;;;;;;;;;;5116430;28;20356;-70
2020/12/24 07:21:00;;;;;;;24.13;15.82;;;;;;;;;;5098300;28;20020;-71
2020/12/24 07:23:36;;;;;;;24.27;16.33;;;;;;;;;;5116533;28;20550;-69
2020/12/24 07:26:04;;;;;;;23.27;15.77;;;;;;;;;;5116698;28;20028;-70
2020/12/24 07:28:31;;;;;;;23.40;15.98;;;;;;;;;;5116462;28;20016;-73
2020/12/24 07:31:01;;;;;;;23.23;15.48;;;;;;;;;;5098193;28;20020;-73
2020/12/24 07:33:27;;;;;;;23.10;15.68;;;;;;;;;;5116355;28;20055;-73
2020/12/24 07:35:54;;;;;;;20.02;14.43;;;;;;;;;;5098083;28;20028;-73
2020/12/24 07:38:29;;;;;;;23.15;14.60;;;;;;;;;;5116401;28;20482;-70
2020/12/24 07:40:56;;;;;;;21.58;14.82;;;;;;;;;;5116317;28;20027;-70
2020/12/24 07:43:22;;;;;;;20.15;14.45;;;;;;;;;;5116221;28;20027;-70
2020/12/24 07:45:48;;;;;;;20.55;13.90;;;;;;;;;;5116076;28;20059;-73
2020/12/24 07:48:15;;;;;;;22.95;15.63;;;;;;;;;;5116142;28;20027;-73
2020/12/24 07:50:42;;;;;;;21.75;15.10;;;;;;;;;;5097851;28;20016;-70
2020/12/24 07:53:09;;;;;;;22.63;15.05;;;;;;;;;;5115977;28;20043;-71
2020/12/24 07:55:35;;;;;;;21.98;14.65;;;;;;;;;;5115967;28;20523;-73
2020/12/24 07:58:12;;;;;;;20.75;14.73;;;;;;;;;;5097646;28;20039;-73
2020/12/24 08:00:56;;;;;;;21.70;14.60;;;;;;;;;;5116013;28;20027;-74
2020/12/24 08:03:22;;;;;;;20.58;14.23;;;;;;;;;;5115876;28;20086;-73
2020/12/24 08:05:49;;;;;;;24.63;15.57;;;;;;;;;;5097624;28;20028;-71
2020/12/24 08:08:24;;;;;;;20.42;14.90;;;;;;;;;;5115592;28;20019;-70
2020/12/24 08:10:50;;;;;;;19.77;14.00;;;;;;;;;;5115736;28;20024;-73
2020/12/24 08:13:16;;;;;;;21.70;14.60;;;;;;;;;;5115669;28;20382;-69
2020/12/24 08:15:44;;;;;;;21.27;14.23;;;;;;;;;;5115444;28;20619;-72
2020/12/24 08:18:11;;;;;;;22.55;14.88;;;;;;;;;;5115560;28;20036;-71
2020/12/24 08:20:45;;;;;;;20.83;13.30;;;;;;;;;;5097566;28;20502;-73
2020/12/24 08:23:12;;;;;;;21.67;14.65;;;;;;;;;;5097004;28;20505;-70
2020/12/24 08:25:38;;;;;;;20.10;14.57;;;;;;;;;;5115362;28;20038;-69
2020/12/24 08:28:04;;;;;;;21.27;14.40;;;;;;;;;;5097077;28;20162;-71
2020/12/24 08:30:30;;;;;;;20.63;14.73;;;;;;;;;;5115324;28;20024;-72
2020/12/24 08:32:58;;;;;;;23.25;14.10;;;;;;;;;;5115122;28;20374;-73
2020/12/24 08:35:29;;;;;;;21.70;14.40;;;;;;;;;;5114919;28;20103;-72
2020/12/24 08:37:55;;;;;;;21.40;14.30;;;;;;;;;;5114937;28;20094;-70
2020/12/24 08:40:25;;;;;;;20.48;14.57;;;;;;;;;;5114742;28;20019;-73
2020/12/24 08:43:00;;;;;;;20.38;14.38;;;;;;;;;;5114857;28;20092;-69
2020/12/24 08:45:27;;;;;;;20.70;14.77;;;;;;;;;;5114997;28;20513;-70
2020/12/24 08:47:53;;;;;;;21.08;13.73;;;;;;;;;;5114998;28;20028;-72
2020/12/24 08:50:32;;;;;;;23.67;15.27;;;;;;;;;;5095054;28;20035;-71
2020/12/24 08:52:59;;;;;;;21.40;13.68;;;;;;;;;;5112286;27;20023;-70
2020/12/24 08:55:28;;;;;;;25.20;14.63;;;;;;;;;;5132896;27;20023;-72
2020/12/24 08:57:58;;;;;;;20.33;13.85;;;;;;;;;;5114688;28;20033;-70
2020/12/24 09:00:25;;;;;;;22.13;13.88;;;;;;;;;;5114400;28;20019;-71
2020/12/24 09:02:51;;;;;;;23.67;15.30;;;;;;;;;;5114358;28;20035;-69
2020/12/24 09:05:24;;;;;;;21.67;14.55;;;;;;;;;;5114324;28;20352;-69
2020/12/24 09:07:50;;;;;;;21.27;14.30;;;;;;;;;;5114363;28;20107;-71
2020/12/24 09:10:24;;;;;;;21.73;15.05;;;;;;;;;;5096218;28;20398;-72
2020/12/24 09:12:55;;;;;;;20.33;14.25;;;;;;;;;;5114303;28;20031;-73
2020/12/24 09:15:24;;;;;;;19.30;13.68;;;;;;;;;;5114035;28;20047;-70
2020/12/24 09:17:52;;;;;;;20.52;14.38;;;;;;;;;;5096051;28;20394;-72
2020/12/24 09:20:28;;;;;;;23.80;14.60;;;;;;;;;;5126754;27;20019;-73
2020/12/24 09:22:55;;;;;;;22.42;15.00;;;;;;;;;;5116309;27;20498;-72
2020/12/24 09:25:31;;;;;;;20.95;14.18;;;;;;;;;;5134715;27;20026;-69
2020/12/24 09:27:57;;;;;;;20.00;14.38;;;;;;;;;;5134700;27;20045;-69
2020/12/24 09:30:23;;;;;;;20.30;15.07;;;;;;;;;;5131699;27;20104;-69
2020/12/24 09:32:56;;;;;;;91.47;52.10;;;;;;;;;;5095850;28;20058;-73
2020/12/24 09:35:26;;;;;;;124.47;68.30;;;;;;;;;;5113868;28;20022;-73
2020/12/24 09:37:53;;;;;;;84.60;51.90;;;;;;;;;;5113844;28;20102;-73
2020/12/24 09:40:19;;;;;;;78.15;45.85;;;;;;;;;;5095363;28;20498;-71
2020/12/24 09:42:46;;;;;;;77.10;43.83;;;;;;;;;;5095077;28;20408;-70
2020/12/24 09:45:12;;;;;;;72.35;43.40;;;;;;;;;;5095250;28;20020;-74
2020/12/24 09:47:38;;;;;;;67.35;41.17;;;;;;;;;;5094371;28;20423;-81
2020/12/24 09:50:05;;;;;;;70.88;40.08;;;;;;;;;;5094956;28;20024;-83
2020/12/24 09:52:32;;;;;;;73.32;41.55;;;;;;;;;;5094111;28;20027;-75
2020/12/24 09:54:58;;;;;;;64.78;39.35;;;;;;;;;;5111996;28;20144;-75
2020/12/24 09:57:24;;;;;;;62.08;37.15;;;;;;;;;;5112024;28;20032;-75
2020/12/24 09:59:50;;;;;;;62.22;35.38;;;;;;;;;;5093374;28;20027;-70
2020/12/24 10:02:16;;;;;;;61.55;36.15;;;;;;;;;;5111771;28;20024;-69
2020/12/24 10:04:42;;;;;;;56.45;34.80;;;;;;;;;;5111228;28;20129;-67
2020/12/24 10:07:09;;;;;;;54.67;33.22;;;;;;;;;;5111122;28;20020;-69
2020/12/24 10:09:36;;;;;;;55.90;34.90;;;;;;;;;;5107607;28;20019;-70
2020/12/24 10:12:02;;;;;;;52.20;33.90;;;;;;;;;;5111734;28;20465;-73
2020/12/24 10:14:28;;;;;;;54.00;32.50;;;;;;;;;;5111839;28;20051;-73
2020/12/24 10:16:54;;;;;;;55.80;30.98;;;;;;;;;;5111630;28;20062;-74
2020/12/24 10:19:20;;;;;;;54.05;32.35;;;;;;;;;;5111938;28;20020;-75
2020/12/24 10:21:46;;;;;;;48.25;30.27;;;;;;;;;;5111292;28;20024;-72
2020/12/24 10:24:12;;;;;;;55.75;28.30;;;;;;;;;;5111764;28;20020;-75
2020/12/24 10:26:38;;;;;;;82.85;31.20;;;;;;;;;;5111853;28;20027;-70
2020/12/24 10:29:04;;;;;;;58.58;27.42;;;;;;;;;;5111780;28;20035;-70
2020/12/24 10:31:31;;;;;;;52.95;24.77;;;;;;;;;;5111939;28;20034;-74
2020/12/24 10:33:57;;;;;;;63.55;25.88;;;;;;;;;;5115974;28;20062;-70
2020/12/24 10:36:24;;;;;;;50.33;23.80;;;;;;;;;;5115715;28;20102;-70
2020/12/24 10:38:50;;;;;;;44.38;25.60;;;;;;;;;;5115768;28;20403;-74
2020/12/24 10:41:16;;;;;;;41.60;22.35;;;;;;;;;;5115772;28;20043;-74
2020/12/24 10:43:43;;;;;;;37.13;21.75;;;;;;;;;;5115701;28;20102;-73
2020/12/24 10:46:09;;;;;;;41.83;21.85;;;;;;;;;;5115724;28;20027;-74
2020/12/24 10:48:35;;;;;;;44.50;23.88;;;;;;;;;;5115862;28;20102;-75
2020/12/24 10:51:01;;;;;;;49.50;25.63;;;;;;;;;;5115203;28;20072;-73
2020/12/24 10:53:27;;;;;;;34.70;21.50;;;;;;;;;;5096704;28;20027;-80
2020/12/24 10:55:53;;;;;;;40.38;21.40;;;;;;;;;;5097091;28;20032;-81
2020/12/24 10:58:19;;;;;;;44.58;21.15;;;;;;;;;;5115693;28;20016;-87
2020/12/24 11:00:45;;;;;;;49.85;21.60;;;;;;;;;;5097254;28;20058;-76
2020/12/24 11:03:11;;;;;;;38.63;20.95;;;;;;;;;;5097214;28;20612;-75
2020/12/24 11:05:37;;;;;;;36.33;20.90;;;;;;;;;;5096892;28;20085;-80
2020/12/24 11:08:04;;;;;;;33.15;18.50;;;;;;;;;;5096543;28;20032;-78
2020/12/24 11:10:30;;;;;;;34.58;20.88;;;;;;;;;;5112321;28;20081;-79
2020/12/24 11:12:56;;;;;;;31.90;18.60;;;;;;;;;;5096514;28;20030;-77
2020/12/24 11:15:22;;;;;;;32.90;17.80;;;;;;;;;;5114631;28;20044;-77
2020/12/24 11:17:48;;;;;;;31.08;18.98;;;;;;;;;;5114950;28;20024;-76
2020/12/24 11:20:14;;;;;;;30.20;17.73;;;;;;;;;;5096734;28;20069;-77
2020/12/24 11:22:40;;;;;;;27.25;17.25;;;;;;;;;;5096094;28;20034;-78
2020/12/24 11:25:06;;;;;;;33.55;20.08;;;;;;;;;;5114631;28;20026;-76
2020/12/24 11:27:32;;;;;;;36.40;19.13;;;;;;;;;;5095957;28;20187;-72
2020/12/24 11:29:58;;;;;;;34.92;19.90;;;;;;;;;;5114570;28;20027;-71
2020/12/24 11:32:24;;;;;;;33.10;19.45;;;;;;;;;;5096154;28;20024;-70
2020/12/24 11:34:50;;;;;;;29.20;19.08;;;;;;;;;;5115080;28;20030;-70
2020/12/24 11:37:16;;;;;;;28.50;17.75;;;;;;;;;;5114811;28;20127;-73
2020/12/24 11:39:42;;;;;;;33.65;18.85;;;;;;;;;;5096611;28;20027;-78
2020/12/24 11:42:10;;;;;;;29.60;18.33;;;;;;;;;;5114667;28;20044;-74
2020/12/24 11:44:37;;;;;;;26.80;16.98;;;;;;;;;;5095504;28;20008;-77
2020/12/24 11:47:03;;;;;;;27.90;18.17;;;;;;;;;;5114643;28;20679;-74
2020/12/24 11:49:29;;;;;;;32.50;20.60;;;;;;;;;;5096334;28;20531;-86
2020/12/24 11:51:55;;;;;;;32.63;19.65;;;;;;;;;;5096944;28;20035;-76
2020/12/24 11:54:21;;;;;;;28.42;16.90;;;;;;;;;;5114375;28;20027;-77
2020/12/24 11:56:47;;;;;;;27.25;16.35;;;;;;;;;;5114246;28;20031;-77
2020/12/24 11:59:13;;;;;;;28.30;16.88;;;;;;;;;;5096065;28;20030;-75
2020/12/24 12:01:39;;;;;;;26.10;16.83;;;;;;;;;;5114298;28;20019;-77
2020/12/24 12:04:05;;;;;;;26.88;16.23;;;;;;;;;;5114025;28;20051;-79
2020/12/24 12:06:31;;;;;;;24.85;16.17;;;;;;;;;;5095651;28;20029;-71
2020/12/24 12:08:57;;;;;;;29.63;17.27;;;;;;;;;;5113970;28;20012;-70
2020/12/24 12:11:23;;;;;;;25.30;16.58;;;;;;;;;;5114361;28;20026;-81
2020/12/24 12:13:50;;;;;;;25.25;16.05;;;;;;;;;;5114236;28;20030;-75
2020/12/24 12:16:22;;;;;;;28.98;16.40;;;;;;;;;;5113886;28;20089;-74
2020/12/24 12:18:48;;;;;;;26.20;16.20;;;;;;;;;;5113645;28;20493;-76
2020/12/24 12:21:17;;;;;;;26.75;15.70;;;;;;;;;;5095516;28;20027;-74
2020/12/24 12:23:43;;;;;;;27.27;16.80;;;;;;;;;;5113893;28;20030;-75
2020/12/24 12:26:10;;;;;;;24.65;15.43;;;;;;;;;;5095520;28;20375;-75
2020/12/24 12:28:36;;;;;;;30.15;13.63;;;;;;;;;;5095607;28;20031;-73
2020/12/24 12:31:03;;;;;;;25.90;17.00;;;;;;;;;;5095696;28;20023;-71
2020/12/24 12:33:29;;;;;;;25.17;14.98;;;;;;;;;;5113623;28;20023;-74
2020/12/24 12:35:55;;;;;;;26.05;15.63;;;;;;;;;;5113263;28;20027;-74
2020/12/24 12:38:21;;;;;;;25.10;15.77;;;;;;;;;;5095245;28;20032;-74
2020/12/24 12:40:47;;;;;;;28.42;14.98;;;;;;;;;;5095444;28;20020;-74
2020/12/24 12:43:13;;;;;;;27.35;13.68;;;;;;;;;;5095314;28;20050;-72
2020/12/24 12:45:39;;;;;;;30.42;15.15;;;;;;;;;;5114020;28;20044;-72
2020/12/24 12:48:06;;;;;;;21.10;12.07;;;;;;;;;;5095360;28;20474;-71
2020/12/24 12:50:32;;;;;;;20.15;12.35;;;;;;;;;;5114036;28;20463;-70
2020/12/24 12:52:58;;;;;;;17.65;11.20;;;;;;;;;;5114034;28;20072;-70
2020/12/24 12:55:24;;;;;;;19.35;11.98;;;;;;;;;;5112337;28;20081;-76
2020/12/24 12:57:50;;;;;;;26.77;11.65;;;;;;;;;;5113235;28;20034;-77
2020/12/24 13:00:16;;;;;;;27.30;11.32;;;;;;;;;;5095054;28;20055;-69
2020/12/24 13:02:42;;;;;;;15.45;9.98;;;;;;;;;;5113059;28;20027;-71
2020/12/24 13:05:08;;;;;;;16.20;9.35;;;;;;;;;;5113335;28;20031;-74
2020/12/24 13:07:35;;;;;;;13.95;9.23;;;;;;;;;;5113287;28;20073;-74
2020/12/24 13:10:01;;;;;;;25.00;10.05;;;;;;;;;;5113166;28;20051;-72
2020/12/24 13:12:27;;;;;;;21.80;10.30;;;;;;;;;;5113264;28;20024;-72
2020/12/24 13:14:53;;;;;;;17.90;8.85;;;;;;;;;;5113004;28;20076;-73
2020/12/24 13:17:21;;;;;;;15.70;8.73;;;;;;;;;;5112913;28;20047;-72
2020/12/24 13:19:47;;;;;;;13.15;8.23;;;;;;;;;;5113404;28;20019;-78
2020/12/24 13:22:13;;;;;;;15.95;8.75;;;;;;;;;;5094648;28;20027;-71
2020/12/24 13:24:41;;;;;;;13.93;8.25;;;;;;;;;;5113517;28;20055;-78
2020/12/24 13:27:08;;;;;;;17.48;8.07;;;;;;;;;;5112834;28;20048;-70
2020/12/24 13:29:34;;;;;;;14.45;7.50;;;;;;;;;;5112534;28;20100;-70
2020/12/24 13:32:00;;;;;;;14.85;8.27;;;;;;;;;;5094167;28;20031;-74
2020/12/24 13:34:26;;;;;;;12.48;6.82;;;;;;;;;;5094377;28;20097;-72
2020/12/24 13:36:52;;;;;;;14.68;7.47;;;;;;;;;;5112560;28;20031;-73
2020/12/24 13:39:18;;;;;;;12.98;6.85;;;;;;;;;;5112418;28;20020;-74
2020/12/24 13:41:49;;;;;;;14.30;6.38;;;;;;;;;;5094133;28;20031;-74
2020/12/24 13:44:15;;;;;;;12.13;7.25;;;;;;;;;;5112713;28;20007;-71
2020/12/24 13:46:45;;;;;;;10.75;6.70;;;;;;;;;;5094810;28;20024;-71
2020/12/24 13:49:11;;;;;;;11.18;6.20;;;;;;;;;;5112977;28;20208;-70
2020/12/24 13:51:37;;;;;;;9.48;5.53;;;;;;;;;;5094685;28;20027;-70
2020/12/24 13:54:03;;;;;;;9.43;5.72;;;;;;;;;;5112706;28;20023;-70
2020/12/24 13:56:29;;;;;;;11.05;5.78;;;;;;;;;;5112783;28;20032;-70
2020/12/24 13:58:55;;;;;;;8.45;4.93;;;;;;;;;;5112968;28;20055;-70
2020/12/24 14:01:21;;;;;;;11.43;5.43;;;;;;;;;;5112550;28;20023;-83
2020/12/24 14:03:47;;;;;;;9.38;6.00;;;;;;;;;;5093881;28;20020;-69
2020/12/24 14:06:14;;;;;;;10.60;6.22;;;;;;;;;;5111979;28;20023;-75
2020/12/24 14:08:40;;;;;;;13.57;6.38;;;;;;;;;;5105924;28;20016;-78
2020/12/24 14:11:07;;;;;;;11.30;6.25;;;;;;;;;;5092429;28;20510;-70
2020/12/24 14:13:33;;;;;;;8.52;5.60;;;;;;;;;;5111091;28;20375;-72
2020/12/24 14:16:00;;;;;;;12.32;5.80;;;;;;;;;;5092530;28;20040;-72
2020/12/24 14:18:27;;;;;;;10.27;5.60;;;;;;;;;;5111829;28;20052;-71